createdAt,value
2023-04-16T00:01:51.695Z,18.20
2023-04-16T00:04:18.993Z,18.20
2023-04-16T00:06:45.995Z,18.20
2023-04-16T00:09:12.829Z,18.20
2023-04-16T00:11:39.602Z,18.20
2023-04-16T00:14:06.355Z,18.10
2023-04-16T00:16:33.621Z,18.10
2023-04-16T00:19:00.462Z,18.10
2023-04-16T00:21:27.578Z,18.10
2023-04-16T00:23:54.317Z,18.10
2023-04-16T00:26:21.192Z,18.10
2023-04-16T00:28:47.998Z,18.10
2023-04-16T00:31:14.827Z,18.10
2023-04-16T00:33:41.616Z,18.00
2023-04-16T00:36:08.377Z,18.00
2023-04-16T00:38:35.462Z,18.00
2023-04-16T00:41:02.458Z,18.00
2023-04-16T00:43:30.671Z,18.00
2023-04-16T00:45:57.760Z,18.00
2023-04-16T00:48:27.745Z,18.00
2023-04-16T00:50:55.382Z,18.00
2023-04-16T00:53:22.297Z,17.90
2023-04-16T00:55:49.250Z,17.90
2023-04-16T00:58:16.602Z,17.90
2023-04-16T01:00:43.333Z,17.90
2023-04-16T01:03:10.723Z,17.90
2023-04-16T01:05:37.957Z,17.90
2023-04-16T01:08:05.045Z,17.90
2023-04-16T01:10:31.868Z,17.90
2023-04-16T01:12:58.645Z,17.80
2023-04-16T01:15:25.433Z,17.80
2023-04-16T01:17:52.274Z,17.80
2023-04-16T01:20:19.191Z,17.80
2023-04-16T01:22:45.908Z,17.80
2023-04-16T01:25:16.225Z,17.80
2023-04-16T01:27:43.086Z,17.70
2023-04-16T01:30:10.119Z,17.70
2023-04-16T01:32:50.335Z,17.80
2023-04-16T01:35:18.321Z,17.70
2023-04-16T01:37:45.129Z,17.70
2023-04-16T01:40:11.992Z,17.70
2023-04-16T01:42:38.845Z,17.70
2023-04-16T01:45:06.236Z,17.70
2023-04-16T01:47:33.046Z,17.60
2023-04-16T01:50:00.762Z,17.60
2023-04-16T01:52:27.555Z,17.70
2023-04-16T01:54:54.281Z,17.70
2023-04-16T01:57:21.052Z,17.60
2023-04-16T01:59:47.791Z,17.60
2023-04-16T02:02:16.246Z,17.60
2023-04-16T02:04:46.556Z,17.60
2023-04-16T02:07:13.611Z,17.60
2023-04-16T02:09:41.306Z,17.60
2023-04-16T02:12:11.271Z,17.60
2023-04-16T02:14:37.953Z,17.60
2023-04-16T02:17:05.061Z,17.50
2023-04-16T02:19:40.786Z,17.40
2023-04-16T02:22:09.228Z,17.40
2023-04-16T02:24:35.967Z,17.40
2023-04-16T02:27:07.110Z,17.40
2023-04-16T02:29:34.018Z,17.40
2023-04-16T02:32:09.190Z,17.40
2023-04-16T02:34:36.691Z,17.40
2023-04-16T02:37:04.261Z,17.40
2023-04-16T02:39:31.160Z,17.40
2023-04-16T02:41:59.337Z,17.40
2023-04-16T02:44:26.746Z,17.40
2023-04-16T02:46:53.545Z,17.40
2023-04-16T02:49:20.327Z,17.40
2023-04-16T02:51:48.492Z,17.40
2023-04-16T02:54:15.547Z,17.40
2023-04-16T02:56:42.293Z,17.40
2023-04-16T02:59:09.332Z,17.40
2023-04-16T03:01:36.308Z,17.30
2023-04-16T03:04:03.405Z,17.30
2023-04-16T03:06:30.303Z,17.30
2023-04-16T03:08:57.253Z,17.30
2023-04-16T03:11:23.982Z,17.30
2023-04-16T03:13:50.827Z,17.30
2023-04-16T03:16:17.656Z,17.30
2023-04-16T03:18:44.520Z,17.30
2023-04-16T03:21:11.628Z,17.30
2023-04-16T03:23:38.365Z,17.30
2023-04-16T03:26:05.297Z,17.30
2023-04-16T03:28:32.246Z,17.20
2023-04-16T03:30:59.118Z,17.20
2023-04-16T03:33:26.166Z,17.20
2023-04-16T03:35:57.457Z,17.20
2023-04-16T03:38:26.686Z,17.20
2023-04-16T03:40:56.101Z,17.20
2023-04-16T03:43:22.999Z,17.20
2023-04-16T03:45:50.158Z,17.20
2023-04-16T03:48:19.206Z,17.10
2023-04-16T03:50:47.588Z,17.10
2023-04-16T03:53:16.447Z,17.10
2023-04-16T03:55:43.345Z,17.10
2023-04-16T03:58:11.027Z,17.10
2023-04-16T04:00:37.886Z,17.10
2023-04-16T04:03:13.828Z,17.10
2023-04-16T04:05:42.677Z,17.10
2023-04-16T04:08:11.494Z,17.10
2023-04-16T04:10:38.589Z,17.10
2023-04-16T04:13:07.182Z,17.00
2023-04-16T04:15:35.945Z,17.10
2023-04-16T04:18:02.788Z,17.10
2023-04-16T04:20:29.609Z,17.10
2023-04-16T04:22:57.012Z,17.10
2023-04-16T04:25:26.901Z,17.00
2023-04-16T04:27:53.874Z,17.00
2023-04-16T04:30:20.744Z,17.00
2023-04-16T04:32:47.546Z,17.00
2023-04-16T04:35:15.989Z,17.00
2023-04-16T04:37:43.092Z,17.00
2023-04-16T04:40:16.958Z,17.00
2023-04-16T04:42:44.563Z,17.00
2023-04-16T04:45:11.622Z,17.00
2023-04-16T04:47:38.514Z,17.00
2023-04-16T04:50:06.152Z,16.90
2023-04-16T04:52:33.457Z,16.90
2023-04-16T04:55:01.699Z,16.90
2023-04-16T04:57:30.044Z,16.90
2023-04-16T04:59:56.889Z,16.90
2023-04-16T05:02:23.991Z,16.90
2023-04-16T05:04:50.817Z,16.90
2023-04-16T05:07:17.618Z,16.90
2023-04-16T05:09:44.383Z,16.90
2023-04-16T05:12:11.105Z,16.90
2023-04-16T05:14:37.898Z,16.90
2023-04-16T05:17:04.638Z,16.90
2023-04-16T05:19:31.572Z,16.80
2023-04-16T05:21:58.328Z,16.80
2023-04-16T05:24:25.110Z,16.80
2023-04-16T05:26:51.862Z,16.80
2023-04-16T05:29:18.648Z,16.80
2023-04-16T05:31:45.618Z,16.80
2023-04-16T05:34:12.388Z,16.80
2023-04-16T05:36:39.109Z,16.80
2023-04-16T05:39:06.124Z,16.80
2023-04-16T05:41:33.067Z,16.80
2023-04-16T05:44:00.041Z,16.80
2023-04-16T05:46:26.843Z,16.80
2023-04-16T05:48:53.685Z,16.80
2023-04-16T05:51:23.076Z,16.80
2023-04-16T05:53:49.913Z,16.70
2023-04-16T05:56:16.660Z,16.80
2023-04-16T05:58:43.415Z,16.80
2023-04-16T06:01:11.450Z,16.70
2023-04-16T06:03:38.335Z,16.70
2023-04-16T06:06:05.306Z,16.70
2023-04-16T06:08:32.068Z,16.70
2023-04-16T06:10:58.790Z,16.70
2023-04-16T06:13:25.549Z,16.70
2023-04-16T06:15:52.320Z,16.80
2023-04-16T06:18:19.099Z,16.80
2023-04-16T06:20:45.941Z,16.70
2023-04-16T06:23:12.663Z,16.70
2023-04-16T06:25:39.388Z,16.70
2023-04-16T06:28:06.135Z,16.70
2023-04-16T06:30:32.886Z,16.70
2023-04-16T06:32:59.666Z,16.80
2023-04-16T06:35:26.485Z,16.80
2023-04-16T06:37:53.198Z,16.70
2023-04-16T06:40:19.911Z,16.70
2023-04-16T06:42:46.680Z,16.70
2023-04-16T06:45:13.529Z,16.80
2023-04-16T06:47:40.612Z,16.70
2023-04-16T06:50:07.816Z,16.70
2023-04-16T06:52:34.704Z,16.70
2023-04-16T06:55:01.960Z,16.70
2023-04-16T06:57:28.828Z,16.70
2023-04-16T06:59:55.604Z,16.70
2023-04-16T07:02:22.447Z,16.70
2023-04-16T07:04:49.206Z,16.80
2023-04-16T07:07:15.954Z,16.70
2023-04-16T07:09:42.712Z,16.80
2023-04-16T07:12:09.619Z,16.80
2023-04-16T07:14:36.419Z,16.70
2023-04-16T07:17:03.165Z,16.70
2023-04-16T07:19:32.517Z,16.80
2023-04-16T07:21:59.921Z,16.80
2023-04-16T07:24:28.104Z,16.80
2023-04-16T07:26:54.821Z,16.80
2023-04-16T07:29:21.532Z,16.80
2023-04-16T07:31:48.707Z,16.80
2023-04-16T07:34:15.588Z,16.80
2023-04-16T07:36:42.294Z,16.80
2023-04-16T07:39:10.870Z,16.80
2023-04-16T07:41:37.842Z,16.80
2023-04-16T07:44:04.752Z,16.80
2023-04-16T07:46:45.613Z,16.80
2023-04-16T07:49:13.527Z,16.80
2023-04-16T07:51:40.544Z,16.80
2023-04-16T07:54:07.416Z,16.80
2023-04-16T07:56:34.168Z,16.80
2023-04-16T07:59:18.402Z,16.90
2023-04-16T08:01:47.622Z,16.90
2023-04-16T08:04:14.475Z,16.90
2023-04-16T08:06:41.383Z,16.90
2023-04-16T08:09:08.313Z,16.90
2023-04-16T08:11:35.306Z,16.90
2023-04-16T08:14:02.028Z,16.90
2023-04-16T08:16:28.811Z,16.90
2023-04-16T08:18:55.692Z,16.90
2023-04-16T08:21:22.504Z,16.90
2023-04-16T08:23:49.237Z,16.90
2023-04-16T08:26:17.473Z,16.90
2023-04-16T08:28:44.233Z,17.00
2023-04-16T08:31:11.320Z,17.00
2023-04-16T08:33:38.084Z,17.00
2023-04-16T08:36:05.115Z,17.00
2023-04-16T08:38:31.839Z,17.10
2023-04-16T08:41:03.182Z,17.10
2023-04-16T08:43:33.551Z,17.10
2023-04-16T08:46:01.227Z,17.10
2023-04-16T08:48:33.747Z,17.10
2023-04-16T08:51:01.661Z,17.10
2023-04-16T08:53:49.262Z,17.10
2023-04-16T08:56:16.253Z,17.20
2023-04-16T08:58:43.140Z,17.20
2023-04-16T09:01:10.968Z,17.20
2023-04-16T09:03:38.271Z,17.30
2023-04-16T09:06:05.611Z,17.40
2023-04-16T09:08:32.508Z,17.40
2023-04-16T09:10:59.756Z,17.40
2023-04-16T09:13:26.965Z,17.50
2023-04-16T09:15:54.399Z,17.50
2023-04-16T09:18:21.388Z,17.50
2023-04-16T09:20:49.325Z,17.60
2023-04-16T09:23:16.058Z,17.60
2023-04-16T09:25:42.798Z,17.70
2023-04-16T09:28:10.390Z,17.80
2023-04-16T09:30:37.583Z,17.80
2023-04-16T09:33:24.329Z,17.80
2023-04-16T09:35:52.988Z,17.90
2023-04-16T09:38:20.425Z,17.90
2023-04-16T09:40:47.611Z,18.00
2023-04-16T09:43:16.676Z,18.00
2023-04-16T09:45:54.176Z,18.10
2023-04-16T09:48:31.489Z,18.10
2023-04-16T09:50:59.340Z,18.20
2023-04-16T09:53:28.023Z,18.20
2023-04-16T09:55:58.994Z,18.20
2023-04-16T09:58:26.105Z,18.30
2023-04-16T10:01:10.814Z,18.30
2023-04-16T10:03:39.484Z,18.40
2023-04-16T10:06:19.382Z,18.40
2023-04-16T10:08:50.647Z,18.40
2023-04-16T10:11:18.396Z,18.50
2023-04-16T10:13:45.508Z,18.50
2023-04-16T10:16:12.626Z,18.60
2023-04-16T10:18:41.564Z,18.70
2023-04-16T10:21:11.706Z,18.70
2023-04-16T10:23:43.266Z,18.80
2023-04-16T10:26:09.988Z,18.90
2023-04-16T10:28:37.059Z,18.90
2023-04-16T10:31:06.348Z,19.00
2023-04-16T10:33:33.920Z,19.10
2023-04-16T10:36:27.140Z,19.20
2023-04-16T10:38:58.041Z,19.20
2023-04-16T10:41:26.713Z,19.30
2023-04-16T10:43:53.960Z,19.40
2023-04-16T10:46:26.856Z,19.50
2023-04-16T10:48:55.002Z,19.70
2023-04-16T10:51:24.953Z,19.80
2023-04-16T10:53:51.910Z,20.00
2023-04-16T10:56:27.957Z,20.00
2023-04-16T10:58:56.320Z,20.20
2023-04-16T11:01:34.813Z,20.30
2023-04-16T11:04:22.874Z,20.40
2023-04-16T11:07:16.238Z,20.40
2023-04-16T11:09:52.120Z,20.60
2023-04-16T11:12:24.433Z,20.70
2023-04-16T11:14:53.174Z,20.80
2023-04-16T11:17:21.015Z,20.90
2023-04-16T11:19:48.279Z,21.00
2023-04-16T11:22:17.286Z,21.00
2023-04-16T11:24:45.630Z,21.10
2023-04-16T11:27:16.658Z,21.20
2023-04-16T11:29:45.078Z,21.30
2023-04-16T11:32:21.882Z,21.30
2023-04-16T11:34:48.711Z,21.40
2023-04-16T11:37:15.591Z,21.40
2023-04-16T11:39:52.772Z,21.50
2023-04-16T11:42:21.555Z,21.50
2023-04-16T11:44:55.505Z,21.50
2023-04-16T11:47:25.495Z,21.50
2023-04-16T11:49:52.927Z,21.50
2023-04-16T11:52:33.207Z,21.50
2023-04-16T11:55:00.162Z,21.70
2023-04-16T11:57:31.948Z,21.70
2023-04-16T12:00:01.554Z,21.90
2023-04-16T12:02:40.744Z,22.00
2023-04-16T12:05:32.725Z,22.00
2023-04-16T12:08:07.032Z,22.20
2023-04-16T12:10:52.991Z,22.20
2023-04-16T12:13:19.829Z,22.30
2023-04-16T12:15:56.989Z,22.30
2023-04-16T12:18:26.976Z,22.40
2023-04-16T12:20:54.086Z,22.30
2023-04-16T12:23:32.894Z,22.40
2023-04-16T12:26:10.450Z,22.40
2023-04-16T12:28:38.547Z,22.30
2023-04-16T12:31:06.009Z,22.40
2023-04-16T12:33:32.996Z,22.40
2023-04-16T12:35:59.973Z,22.40
2023-04-16T12:38:27.654Z,22.50
2023-04-16T12:40:57.109Z,22.50
2023-04-16T12:43:25.087Z,22.50
2023-04-16T12:45:52.006Z,22.50
2023-04-16T12:48:18.892Z,22.50
2023-04-16T12:50:46.043Z,22.50
2023-04-16T12:53:12.930Z,22.50
2023-04-16T12:55:39.850Z,22.60
2023-04-16T12:58:06.865Z,22.70
2023-04-16T13:00:33.698Z,22.60
2023-04-16T13:03:01.091Z,22.70
2023-04-16T13:05:28.014Z,22.70
2023-04-16T13:07:55.001Z,22.80
2023-04-16T13:10:23.443Z,22.80
2023-04-16T13:12:50.564Z,22.80
2023-04-16T13:15:17.388Z,22.80
2023-04-16T13:17:44.400Z,22.90
2023-04-16T13:20:11.584Z,22.90
2023-04-16T13:22:38.815Z,22.90
2023-04-16T13:25:06.240Z,22.90
2023-04-16T13:27:33.227Z,22.90
2023-04-16T13:30:00.707Z,23.00
2023-04-16T13:32:27.890Z,23.00
2023-04-16T13:34:55.004Z,22.90
2023-04-16T13:37:22.118Z,22.90
2023-04-16T13:39:49.026Z,22.90
2023-04-16T13:42:16.936Z,22.90
2023-04-16T13:44:43.835Z,22.90
2023-04-16T13:47:11.347Z,22.90
2023-04-16T13:49:38.305Z,22.80
2023-04-16T13:52:05.298Z,22.80
2023-04-16T13:54:32.187Z,22.80
2023-04-16T13:56:59.176Z,22.80
2023-04-16T13:59:26.666Z,22.80
2023-04-16T14:01:53.597Z,22.80
2023-04-16T14:04:22.550Z,22.80
2023-04-16T14:06:49.880Z,22.70
2023-04-16T14:09:16.684Z,22.70
2023-04-16T14:11:43.530Z,22.70
2023-04-16T14:14:10.437Z,22.80
2023-04-16T14:16:37.477Z,22.80
2023-04-16T14:19:04.290Z,22.90
2023-04-16T14:21:31.322Z,22.90
2023-04-16T14:23:58.116Z,23.00
2023-04-16T14:26:25.080Z,23.10
2023-04-16T14:28:52.159Z,23.10
2023-04-16T14:31:20.007Z,23.10
2023-04-16T14:33:47.263Z,23.20
2023-04-16T14:36:14.362Z,23.20
2023-04-16T14:38:43.352Z,23.20
2023-04-16T14:41:12.409Z,23.20
2023-04-16T14:43:41.246Z,23.30
2023-04-16T14:46:08.366Z,23.20
2023-04-16T14:48:35.608Z,23.30
2023-04-16T14:51:02.710Z,23.20
2023-04-16T14:53:29.651Z,23.20
2023-04-16T14:55:59.068Z,23.20
2023-04-16T14:58:26.408Z,23.30
2023-04-16T15:00:53.532Z,23.20
2023-04-16T15:03:20.779Z,23.20
2023-04-16T15:05:54.811Z,23.20
2023-04-16T15:08:22.836Z,23.20
2023-04-16T15:10:50.298Z,23.20
2023-04-16T15:13:17.810Z,23.30
2023-04-16T15:15:44.760Z,23.30
2023-04-16T15:18:11.695Z,23.30
2023-04-16T15:20:38.623Z,23.30
2023-04-16T15:23:05.373Z,23.30
2023-04-16T15:25:32.193Z,23.20
2023-04-16T15:27:59.411Z,23.30
2023-04-16T15:30:26.203Z,23.30
2023-04-16T15:32:54.939Z,23.20
2023-04-16T15:35:22.081Z,23.20
2023-04-16T15:37:48.974Z,23.10
2023-04-16T15:40:18.764Z,23.10
2023-04-16T15:42:45.635Z,23.00
2023-04-16T15:45:12.413Z,23.00
2023-04-16T15:47:41.703Z,22.90
2023-04-16T15:50:09.070Z,22.80
2023-04-16T15:52:36.520Z,22.80
2023-04-16T15:55:04.458Z,22.70
2023-04-16T15:57:31.410Z,22.60
2023-04-16T16:00:06.043Z,22.60
2023-04-16T16:02:34.376Z,22.50
2023-04-16T16:05:01.748Z,22.50
2023-04-16T16:07:28.687Z,22.40
2023-04-16T16:09:56.283Z,22.30
2023-04-16T16:12:23.505Z,22.30
2023-04-16T16:14:50.306Z,22.20
2023-04-16T16:17:17.780Z,22.20
2023-04-16T16:19:46.413Z,22.10
2023-04-16T16:22:13.979Z,22.10
2023-04-16T16:24:40.875Z,22.00
2023-04-16T16:27:07.924Z,22.00
2023-04-16T16:29:35.006Z,22.00
2023-04-16T16:32:01.982Z,22.00
2023-04-16T16:34:31.888Z,21.90
2023-04-16T16:36:58.757Z,21.90
2023-04-16T16:39:26.606Z,21.80
2023-04-16T16:41:53.361Z,21.80
2023-04-16T16:44:20.727Z,21.80
2023-04-16T16:46:47.837Z,21.80
2023-04-16T16:49:16.018Z,21.80
2023-04-16T16:51:45.927Z,21.80
2023-04-16T16:54:13.049Z,21.70
2023-04-16T16:56:40.164Z,21.70
2023-04-16T16:59:08.660Z,21.70
2023-04-16T17:01:35.942Z,21.70
2023-04-16T17:04:06.225Z,21.70
2023-04-16T17:06:33.646Z,21.70
2023-04-16T17:09:01.004Z,21.60
2023-04-16T17:11:29.360Z,21.60
2023-04-16T17:13:56.330Z,21.60
2023-04-16T17:16:24.137Z,21.60
2023-04-16T17:18:51.287Z,21.50
2023-04-16T17:21:18.074Z,21.50
2023-04-16T17:23:45.014Z,21.50
2023-04-16T17:26:11.783Z,21.50
2023-04-16T17:28:38.746Z,21.40
2023-04-16T17:31:08.486Z,21.40
2023-04-16T17:33:35.758Z,21.40
2023-04-16T17:36:02.866Z,21.30
2023-04-16T17:38:29.737Z,21.30
2023-04-16T17:40:57.117Z,21.30
2023-04-16T17:43:24.181Z,21.30
2023-04-16T17:45:51.115Z,21.20
2023-04-16T17:48:17.878Z,21.10
2023-04-16T17:50:44.635Z,21.10
2023-04-16T17:53:11.524Z,21.00
2023-04-16T17:55:38.336Z,21.00
2023-04-16T17:58:05.316Z,21.00
2023-04-16T18:00:32.079Z,21.00
2023-04-16T18:02:59.772Z,20.90
2023-04-16T18:05:27.377Z,20.90
2023-04-16T18:07:55.391Z,20.80
2023-04-16T18:10:22.264Z,20.80
2023-04-16T18:12:49.096Z,20.70
2023-04-16T18:15:16.434Z,20.70
2023-04-16T18:17:43.302Z,20.60
2023-04-16T18:20:11.664Z,20.60
2023-04-16T18:22:38.406Z,20.60
2023-04-16T18:25:06.615Z,20.50
2023-04-16T18:27:33.417Z,20.50
2023-04-16T18:30:00.290Z,20.40
2023-04-16T18:32:30.788Z,20.40
2023-04-16T18:34:58.110Z,20.30
2023-04-16T18:37:24.858Z,20.30
2023-04-16T18:39:51.568Z,20.30
2023-04-16T18:42:18.295Z,20.20
2023-04-16T18:44:51.774Z,20.20
2023-04-16T18:47:18.625Z,20.20
2023-04-16T18:49:45.469Z,20.10
2023-04-16T18:52:12.395Z,20.00
2023-04-16T18:54:39.154Z,20.00
2023-04-16T18:57:06.093Z,20.00
2023-04-16T18:59:32.973Z,20.00
2023-04-16T19:01:59.893Z,19.90
2023-04-16T19:04:26.801Z,19.90
2023-04-16T19:06:53.559Z,19.90
2023-04-16T19:09:20.274Z,19.80
2023-04-16T19:11:48.464Z,19.80
2023-04-16T19:14:15.593Z,19.80
2023-04-16T19:16:42.477Z,19.80
2023-04-16T19:19:09.403Z,19.70
2023-04-16T19:21:37.047Z,19.70
2023-04-16T19:24:03.907Z,19.70
2023-04-16T19:26:30.773Z,19.60
2023-04-16T19:28:57.508Z,19.60
2023-04-16T19:31:26.084Z,19.60
2023-04-16T19:33:52.831Z,19.50
2023-04-16T19:36:19.550Z,19.60
2023-04-16T19:38:46.272Z,19.60
2023-04-16T19:41:12.994Z,19.50
2023-04-16T19:43:39.746Z,19.50
2023-04-16T19:46:06.534Z,19.50
2023-04-16T19:48:33.342Z,19.40
2023-04-16T19:51:03.990Z,19.40
2023-04-16T19:53:30.930Z,19.40
2023-04-16T19:55:57.688Z,19.40
2023-04-16T19:58:25.311Z,19.40
2023-04-16T20:00:52.124Z,19.30
2023-04-16T20:03:18.997Z,19.30
2023-04-16T20:05:48.650Z,19.30
2023-04-16T20:08:15.701Z,19.30
2023-04-16T20:10:42.442Z,19.30
2023-04-16T20:13:12.003Z,19.30
2023-04-16T20:15:38.838Z,19.20
2023-04-16T20:18:07.289Z,19.20
2023-04-16T20:20:38.036Z,19.20
2023-04-16T20:23:05.197Z,19.10
2023-04-16T20:25:31.996Z,19.20
2023-04-16T20:27:58.710Z,19.10
2023-04-16T20:30:29.385Z,19.10
2023-04-16T20:32:56.510Z,19.10
2023-04-16T20:35:23.391Z,19.10
2023-04-16T20:37:50.202Z,19.10
2023-04-16T20:40:17.121Z,19.00
2023-04-16T20:42:46.290Z,19.00
2023-04-16T20:45:13.329Z,19.00
2023-04-16T20:47:40.114Z,19.00
2023-04-16T20:50:07.626Z,19.00
2023-04-16T20:52:34.439Z,19.00
2023-04-16T20:55:01.688Z,19.00
2023-04-16T20:57:29.634Z,18.90
2023-04-16T20:59:56.569Z,18.90
2023-04-16T21:02:24.283Z,18.90
2023-04-16T21:04:51.401Z,18.90
2023-04-16T21:07:18.204Z,18.90
2023-04-16T21:09:44.975Z,18.90
2023-04-16T21:12:11.857Z,18.90
2023-04-16T21:14:38.600Z,18.90
2023-04-16T21:17:05.506Z,18.90
2023-04-16T21:19:32.253Z,18.90
2023-04-16T21:21:58.965Z,18.80
2023-04-16T21:24:25.775Z,18.80
2023-04-16T21:26:52.596Z,18.80
2023-04-16T21:29:19.370Z,18.80
2023-04-16T21:31:46.300Z,18.80
2023-04-16T21:34:13.032Z,18.80
2023-04-16T21:36:39.750Z,18.70
2023-04-16T21:39:06.490Z,18.70
2023-04-16T21:41:33.330Z,18.70
2023-04-16T21:44:00.194Z,18.70
2023-04-16T21:46:27.710Z,18.70
2023-04-16T21:48:54.468Z,18.70
2023-04-16T21:51:28.822Z,18.70
2023-04-16T21:53:58.636Z,18.60
2023-04-16T21:56:26.047Z,18.60
2023-04-16T21:58:52.787Z,18.60
2023-04-16T22:01:19.852Z,18.60
2023-04-16T22:03:50.575Z,18.60
2023-04-16T22:06:17.830Z,18.60
2023-04-16T22:08:44.569Z,18.50
2023-04-16T22:11:11.280Z,18.50
2023-04-16T22:13:42.006Z,18.50
2023-04-16T22:16:11.514Z,18.50
2023-04-16T22:18:38.751Z,18.50
2023-04-16T22:21:05.571Z,18.50
2023-04-16T22:23:32.404Z,18.50
2023-04-16T22:25:59.125Z,18.50
2023-04-16T22:28:26.047Z,18.40
2023-04-16T22:30:52.817Z,18.40
2023-04-16T22:33:22.405Z,18.40
2023-04-16T22:35:49.162Z,18.50
2023-04-16T22:38:16.510Z,18.40
2023-04-16T22:40:43.299Z,18.40
2023-04-16T22:43:10.021Z,18.40
2023-04-16T22:45:37.437Z,18.40
2023-04-16T22:48:04.499Z,18.30
2023-04-16T22:50:31.980Z,18.30
2023-04-16T22:52:58.726Z,18.30
2023-04-16T22:55:25.542Z,18.30
2023-04-16T22:57:52.276Z,18.30
2023-04-16T23:00:19.382Z,18.30
2023-04-16T23:02:46.466Z,18.30
2023-04-16T23:05:13.362Z,18.30
2023-04-16T23:07:40.455Z,18.30
2023-04-16T23:10:08.657Z,18.20
2023-04-16T23:12:38.854Z,18.20
2023-04-16T23:15:06.785Z,18.20
2023-04-16T23:17:34.867Z,18.20
2023-04-16T23:20:01.690Z,18.20
2023-04-16T23:22:28.471Z,18.20
2023-04-16T23:24:55.240Z,18.20
2023-04-16T23:27:22.013Z,18.20
2023-04-16T23:29:48.847Z,18.20
2023-04-16T23:32:15.757Z,18.20
2023-04-16T23:34:42.461Z,18.20
2023-04-16T23:37:09.286Z,18.20
2023-04-16T23:39:36.100Z,18.10
2023-04-16T23:42:03.668Z,18.10
2023-04-16T23:44:30.771Z,18.10
2023-04-16T23:46:57.637Z,18.10
2023-04-16T23:49:24.843Z,18.10
2023-04-16T23:51:51.633Z,18.00
2023-04-16T23:54:18.687Z,18.00
2023-04-16T23:56:45.537Z,18.00
2023-04-16T23:59:12.759Z,18.00
